sensor_id;sensor_type;location;lat;lon;timestamp;temperature;humidity
23629;DHT22;11991;57.150;-2.134;2022-09-09T00:04:41;15.20;99.90
23629;DHT22;11991;57.150;-2.134;2022-09-09T00:21:11;15.20;99.90
23629;DHT22;11991;57.150;-2.134;2022-09-09T00:23:50;15.30;99.90
23629;DHT22;11991;57.150;-2.134;2022-09-09T00:26:44;15.30;99.90
23629;DHT22;11991;57.150;-2.134;2022-09-09T00:32:16;15.30;99.90
23629;DHT22;11991;57.150;-2.134;2022-09-09T00:34:54;15.20;99.90
23629;DHT22;11991;57.150;-2.134;2022-09-09T00:37:24;15.20;99.90
23629;DHT22;11991;57.150;-2.134;2022-09-09T00:39:58;15.20;99.90
23629;DHT22;11991;57.150;-2.134;2022-09-09T00:42:36;15.20;99.90
23629;DHT22;11991;57.150;-2.134;2022-09-09T00:47:48;15.10;99.90
23629;DHT22;11991;57.150;-2.134;2022-09-09T00:50:44;15.10;99.90
23629;DHT22;11991;57.150;-2.134;2022-09-09T00:56:20;15.10;99.90
23629;DHT22;11991;57.150;-2.134;2022-09-09T01:01:38;15.10;99.90
23629;DHT22;11991;57.150;-2.134;2022-09-09T01:04:13;15.10;99.90
23629;DHT22;11991;57.150;-2.134;2022-09-09T01:06:46;15.10;99.90
23629;DHT22;11991;57.150;-2.134;2022-09-09T01:09:55;15.10;99.90
23629;DHT22;11991;57.150;-2.134;2022-09-09T01:12:41;15.10;99.90
23629;DHT22;11991;57.150;-2.134;2022-09-09T01:15:15;15.00;99.90
23629;DHT22;11991;57.150;-2.134;2022-09-09T01:18:00;15.00;99.90
23629;DHT22;11991;57.150;-2.134;2022-09-09T01:20:53;15.00;99.90
23629;DHT22;11991;57.150;-2.134;2022-09-09T01:28:51;15.10;99.90
23629;DHT22;11991;57.150;-2.134;2022-09-09T01:31:32;15.10;99.90
23629;DHT22;11991;57.150;-2.134;2022-09-09T01:33:59;15.10;99.90
23629;DHT22;11991;57.150;-2.134;2022-09-09T01:36:57;15.10;99.90
23629;DHT22;11991;57.150;-2.134;2022-09-09T01:39:26;15.10;99.90
23629;DHT22;11991;57.150;-2.134;2022-09-09T01:42:01;15.10;99.90
23629;DHT22;11991;57.150;-2.134;2022-09-09T01:44:29;15.10;99.90
23629;DHT22;11991;57.150;-2.134;2022-09-09T01:46:57;15.10;99.90
23629;DHT22;11991;57.150;-2.134;2022-09-09T01:49:24;15.10;99.90
23629;DHT22;11991;57.150;-2.134;2022-09-09T01:51:54;15.00;99.90
23629;DHT22;11991;57.150;-2.134;2022-09-09T01:54:33;15.10;99.90
23629;DHT22;11991;57.150;-2.134;2022-09-09T02:00:06;15.10;99.90
23629;DHT22;11991;57.150;-2.134;2022-09-09T02:05:38;15.10;99.90
23629;DHT22;11991;57.150;-2.134;2022-09-09T02:08:45;15.10;99.90
23629;DHT22;11991;57.150;-2.134;2022-09-09T02:11:19;15.10;99.90
23629;DHT22;11991;57.150;-2.134;2022-09-09T02:14:19;15.10;99.90
23629;DHT22;11991;57.150;-2.134;2022-09-09T02:16:51;15.00;99.90
23629;DHT22;11991;57.150;-2.134;2022-09-09T02:19:32;15.00;99.90
23629;DHT22;11991;57.150;-2.134;2022-09-09T02:22:12;15.00;99.90
23629;DHT22;11991;57.150;-2.134;2022-09-09T02:24:39;15.00;99.90
23629;DHT22;11991;57.150;-2.134;2022-09-09T02:27:20;15.00;99.90
23629;DHT22;11991;57.150;-2.134;2022-09-09T02:29:50;14.90;99.90
23629;DHT22;11991;57.150;-2.134;2022-09-09T02:32:25;14.90;99.90
23629;DHT22;11991;57.150;-2.134;2022-09-09T02:35:00;14.90;99.90
23629;DHT22;11991;57.150;-2.134;2022-09-09T02:37:38;14.90;99.90
23629;DHT22;11991;57.150;-2.134;2022-09-09T02:40:08;14.90;99.90
23629;DHT22;11991;57.150;-2.134;2022-09-09T03:04:16;14.90;99.90
23629;DHT22;11991;57.150;-2.134;2022-09-09T03:06:44;14.90;99.90
23629;DHT22;11991;57.150;-2.134;2022-09-09T03:09:18;14.90;99.90
23629;DHT22;11991;57.150;-2.134;2022-09-09T03:11:45;14.90;99.90
23629;DHT22;11991;57.150;-2.134;2022-09-09T03:14:15;14.90;99.90
23629;DHT22;11991;57.150;-2.134;2022-09-09T03:16:43;14.90;99.90
23629;DHT22;11991;57.150;-2.134;2022-09-09T03:19:10;14.90;99.90
23629;DHT22;11991;57.150;-2.134;2022-09-09T03:21:38;14.90;99.90
23629;DHT22;11991;57.150;-2.134;2022-09-09T03:24:06;14.90;99.90
23629;DHT22;11991;57.150;-2.134;2022-09-09T03:26:34;14.90;99.90
23629;DHT22;11991;57.150;-2.134;2022-09-09T03:29:01;14.80;99.90
23629;DHT22;11991;57.150;-2.134;2022-09-09T03:31:29;14.80;99.90
23629;DHT22;11991;57.150;-2.134;2022-09-09T03:33:58;14.80;99.90
23629;DHT22;11991;57.150;-2.134;2022-09-09T03:36:29;14.80;99.90
23629;DHT22;11991;57.150;-2.134;2022-09-09T03:38:57;14.80;99.90
23629;DHT22;11991;57.150;-2.134;2022-09-09T03:41:28;14.80;99.90
23629;DHT22;11991;57.150;-2.134;2022-09-09T03:43:56;14.80;99.90
23629;DHT22;11991;57.150;-2.134;2022-09-09T03:46:25;14.80;99.90
23629;DHT22;11991;57.150;-2.134;2022-09-09T03:48:53;14.80;99.90
23629;DHT22;11991;57.150;-2.134;2022-09-09T03:51:20;14.80;99.90
23629;DHT22;11991;57.150;-2.134;2022-09-09T03:53:49;14.80;99.90
23629;DHT22;11991;57.150;-2.134;2022-09-09T03:56:17;14.80;99.90
23629;DHT22;11991;57.150;-2.134;2022-09-09T03:58:44;14.80;99.90
23629;DHT22;11991;57.150;-2.134;2022-09-09T04:01:13;14.80;99.90
23629;DHT22;11991;57.150;-2.134;2022-09-09T04:03:43;14.80;99.90
23629;DHT22;11991;57.150;-2.134;2022-09-09T04:06:11;14.80;99.90
23629;DHT22;11991;57.150;-2.134;2022-09-09T04:08:42;14.80;99.90
23629;DHT22;11991;57.150;-2.134;2022-09-09T04:11:10;14.80;99.90
23629;DHT22;11991;57.150;-2.134;2022-09-09T04:13:38;14.80;99.90
23629;DHT22;11991;57.150;-2.134;2022-09-09T04:16:10;14.80;99.90
23629;DHT22;11991;57.150;-2.134;2022-09-09T04:18:40;14.80;99.90
23629;DHT22;11991;57.150;-2.134;2022-09-09T04:21:09;14.80;99.90
23629;DHT22;11991;57.150;-2.134;2022-09-09T04:23:37;14.80;99.90
23629;DHT22;11991;57.150;-2.134;2022-09-09T04:26:05;14.80;99.90
23629;DHT22;11991;57.150;-2.134;2022-09-09T04:28:36;14.80;99.90
23629;DHT22;11991;57.150;-2.134;2022-09-09T04:31:18;14.80;99.90
23629;DHT22;11991;57.150;-2.134;2022-09-09T04:33:52;14.80;99.90
23629;DHT22;11991;57.150;-2.134;2022-09-09T04:36:20;14.70;99.90
23629;DHT22;11991;57.150;-2.134;2022-09-09T04:38:49;14.70;99.90
23629;DHT22;11991;57.150;-2.134;2022-09-09T04:41:17;14.70;99.90
23629;DHT22;11991;57.150;-2.134;2022-09-09T04:43:47;14.70;99.90
23629;DHT22;11991;57.150;-2.134;2022-09-09T04:46:15;14.70;99.90
23629;DHT22;11991;57.150;-2.134;2022-09-09T04:48:45;14.70;99.90
23629;DHT22;11991;57.150;-2.134;2022-09-09T04:51:14;14.70;99.90
23629;DHT22;11991;57.150;-2.134;2022-09-09T04:53:43;14.70;99.90
23629;DHT22;11991;57.150;-2.134;2022-09-09T04:56:14;14.70;99.90
23629;DHT22;11991;57.150;-2.134;2022-09-09T04:58:49;14.70;99.90
23629;DHT22;11991;57.150;-2.134;2022-09-09T05:01:21;14.70;99.90
23629;DHT22;11991;57.150;-2.134;2022-09-09T05:03:51;14.70;99.90
23629;DHT22;11991;57.150;-2.134;2022-09-09T05:06:22;14.70;99.90
23629;DHT22;11991;57.150;-2.134;2022-09-09T05:08:56;14.70;99.90
23629;DHT22;11991;57.150;-2.134;2022-09-09T05:11:30;14.70;99.90
23629;DHT22;11991;57.150;-2.134;2022-09-09T05:14:17;14.70;99.90
23629;DHT22;11991;57.150;-2.134;2022-09-09T05:16:45;14.70;99.90
23629;DHT22;11991;57.150;-2.134;2022-09-09T05:19:14;14.70;99.90
23629;DHT22;11991;57.150;-2.134;2022-09-09T05:21:47;14.70;99.90
23629;DHT22;11991;57.150;-2.134;2022-09-09T05:24:17;14.80;99.90
23629;DHT22;11991;57.150;-2.134;2022-09-09T05:26:47;14.80;99.90
23629;DHT22;11991;57.150;-2.134;2022-09-09T05:29:16;14.80;99.90
23629;DHT22;11991;57.150;-2.134;2022-09-09T05:31:46;14.80;99.90
23629;DHT22;11991;57.150;-2.134;2022-09-09T05:34:17;14.80;99.90
23629;DHT22;11991;57.150;-2.134;2022-09-09T05:36:45;14.80;99.90
23629;DHT22;11991;57.150;-2.134;2022-09-09T05:39:12;14.80;99.90
23629;DHT22;11991;57.150;-2.134;2022-09-09T05:41:40;14.80;99.90
23629;DHT22;11991;57.150;-2.134;2022-09-09T05:44:08;14.80;99.90
23629;DHT22;11991;57.150;-2.134;2022-09-09T05:46:38;14.80;99.90
23629;DHT22;11991;57.150;-2.134;2022-09-09T05:49:05;14.80;99.90
23629;DHT22;11991;57.150;-2.134;2022-09-09T05:51:34;14.80;99.90
23629;DHT22;11991;57.150;-2.134;2022-09-09T05:54:06;14.80;99.90
23629;DHT22;11991;57.150;-2.134;2022-09-09T05:56:38;14.80;99.90
23629;DHT22;11991;57.150;-2.134;2022-09-09T05:59:07;14.80;99.90
23629;DHT22;11991;57.150;-2.134;2022-09-09T06:01:36;14.80;99.90
23629;DHT22;11991;57.150;-2.134;2022-09-09T06:04:10;14.90;99.90
23629;DHT22;11991;57.150;-2.134;2022-09-09T06:06:39;14.90;99.90
23629;DHT22;11991;57.150;-2.134;2022-09-09T06:09:14;14.90;99.90
23629;DHT22;11991;57.150;-2.134;2022-09-09T06:11:42;14.90;99.90
23629;DHT22;11991;57.150;-2.134;2022-09-09T06:14:11;14.90;99.90
23629;DHT22;11991;57.150;-2.134;2022-09-09T06:16:39;14.90;99.90
23629;DHT22;11991;57.150;-2.134;2022-09-09T06:19:15;14.90;99.90
23629;DHT22;11991;57.150;-2.134;2022-09-09T06:21:43;14.90;99.90
23629;DHT22;11991;57.150;-2.134;2022-09-09T06:24:12;14.90;99.90
23629;DHT22;11991;57.150;-2.134;2022-09-09T06:26:41;14.90;99.90
23629;DHT22;11991;57.150;-2.134;2022-09-09T06:29:15;14.90;99.90
23629;DHT22;11991;57.150;-2.134;2022-09-09T06:31:42;14.90;99.90
23629;DHT22;11991;57.150;-2.134;2022-09-09T06:34:20;14.90;99.90
23629;DHT22;11991;57.150;-2.134;2022-09-09T06:36:52;14.90;99.90
23629;DHT22;11991;57.150;-2.134;2022-09-09T06:39:20;14.90;99.90
23629;DHT22;11991;57.150;-2.134;2022-09-09T06:41:49;14.90;99.90
23629;DHT22;11991;57.150;-2.134;2022-09-09T06:44:35;14.90;99.90
23629;DHT22;11991;57.150;-2.134;2022-09-09T06:47:06;14.90;99.90
23629;DHT22;11991;57.150;-2.134;2022-09-09T06:49:34;14.90;99.90
23629;DHT22;11991;57.150;-2.134;2022-09-09T06:52:05;14.90;99.90
23629;DHT22;11991;57.150;-2.134;2022-09-09T06:54:38;14.90;99.90
23629;DHT22;11991;57.150;-2.134;2022-09-09T06:57:15;15.00;99.90
23629;DHT22;11991;57.150;-2.134;2022-09-09T07:00:30;15.00;99.90
23629;DHT22;11991;57.150;-2.134;2022-09-09T07:03:22;15.00;99.90
23629;DHT22;11991;57.150;-2.134;2022-09-09T07:05:56;15.00;99.90
23629;DHT22;11991;57.150;-2.134;2022-09-09T07:08:58;15.00;99.90
23629;DHT22;11991;57.150;-2.134;2022-09-09T07:14:28;15.10;99.90
23629;DHT22;11991;57.150;-2.134;2022-09-09T07:20:32;15.10;99.90
23629;DHT22;11991;57.150;-2.134;2022-09-09T07:23:00;15.20;99.90
23629;DHT22;11991;57.150;-2.134;2022-09-09T07:25:34;15.10;99.90
23629;DHT22;11991;57.150;-2.134;2022-09-09T07:28:11;15.20;99.90
23629;DHT22;11991;57.150;-2.134;2022-09-09T07:31:30;15.20;99.90
23629;DHT22;11991;57.150;-2.134;2022-09-09T07:34:26;15.20;99.90
23629;DHT22;11991;57.150;-2.134;2022-09-09T07:37:29;15.20;99.90
23629;DHT22;11991;57.150;-2.134;2022-09-09T07:40:03;15.20;99.90
23629;DHT22;11991;57.150;-2.134;2022-09-09T07:52:06;15.40;99.90
23629;DHT22;11991;57.150;-2.134;2022-09-09T07:54:44;15.50;99.90
23629;DHT22;11991;57.150;-2.134;2022-09-09T08:04:10;15.50;99.90
23629;DHT22;11991;57.150;-2.134;2022-09-09T08:06:46;15.60;99.90
23629;DHT22;11991;57.150;-2.134;2022-09-09T08:09:15;15.60;99.90
23629;DHT22;11991;57.150;-2.134;2022-09-09T08:11:45;15.60;99.90
23629;DHT22;11991;57.150;-2.134;2022-09-09T08:14:14;15.60;99.90
23629;DHT22;11991;57.150;-2.134;2022-09-09T08:16:44;15.70;99.90
23629;DHT22;11991;57.150;-2.134;2022-09-09T08:19:16;15.70;99.90
23629;DHT22;11991;57.150;-2.134;2022-09-09T08:21:46;15.70;99.90
23629;DHT22;11991;57.150;-2.134;2022-09-09T08:24:13;15.70;99.90
23629;DHT22;11991;57.150;-2.134;2022-09-09T08:26:47;15.70;99.90
23629;DHT22;11991;57.150;-2.134;2022-09-09T08:29:23;15.70;99.90
23629;DHT22;11991;57.150;-2.134;2022-09-09T08:31:54;15.70;99.90
23629;DHT22;11991;57.150;-2.134;2022-09-09T08:34:32;15.70;99.90
23629;DHT22;11991;57.150;-2.134;2022-09-09T08:37:14;15.70;99.90
23629;DHT22;11991;57.150;-2.134;2022-09-09T08:40:16;15.70;99.90
23629;DHT22;11991;57.150;-2.134;2022-09-09T08:42:49;15.80;99.90
23629;DHT22;11991;57.150;-2.134;2022-09-09T08:45:36;15.80;99.90
23629;DHT22;11991;57.150;-2.134;2022-09-09T08:48:18;15.80;99.90
23629;DHT22;11991;57.150;-2.134;2022-09-09T08:50:52;15.80;99.90
23629;DHT22;11991;57.150;-2.134;2022-09-09T08:53:40;15.80;99.90
23629;DHT22;11991;57.150;-2.134;2022-09-09T08:56:14;15.80;99.90
23629;DHT22;11991;57.150;-2.134;2022-09-09T08:58:52;15.90;99.90
23629;DHT22;11991;57.150;-2.134;2022-09-09T09:07:46;15.90;99.90
23629;DHT22;11991;57.150;-2.134;2022-09-09T09:10:45;16.10;99.90
23629;DHT22;11991;57.150;-2.134;2022-09-09T09:13:40;16.10;99.90
23629;DHT22;11991;57.150;-2.134;2022-09-09T09:19:05;16.20;99.90
23629;DHT22;11991;57.150;-2.134;2022-09-09T09:21:58;16.10;99.90
23629;DHT22;11991;57.150;-2.134;2022-09-09T09:27:20;16.20;99.90
23629;DHT22;11991;57.150;-2.134;2022-09-09T09:29:56;16.20;99.90
23629;DHT22;11991;57.150;-2.134;2022-09-09T09:39:53;16.10;99.90
23629;DHT22;11991;57.150;-2.134;2022-09-09T09:46:00;16.00;99.90
23629;DHT22;11991;57.150;-2.134;2022-09-09T09:49:50;16.10;99.90
23629;DHT22;11991;57.150;-2.134;2022-09-09T09:52:32;15.90;99.90
23629;DHT22;11991;57.150;-2.134;2022-09-09T09:55:14;15.90;99.90
23629;DHT22;11991;57.150;-2.134;2022-09-09T09:57:48;15.80;99.90
23629;DHT22;11991;57.150;-2.134;2022-09-09T10:00:18;15.80;99.90
23629;DHT22;11991;57.150;-2.134;2022-09-09T10:03:23;15.80;99.90
23629;DHT22;11991;57.150;-2.134;2022-09-09T10:06:01;15.80;99.90
23629;DHT22;11991;57.150;-2.134;2022-09-09T10:08:29;15.90;99.90
23629;DHT22;11991;57.150;-2.134;2022-09-09T10:30:17;15.90;99.90
23629;DHT22;11991;57.150;-2.134;2022-09-09T10:38:47;15.90;99.90
23629;DHT22;11991;57.150;-2.134;2022-09-09T10:45:21;15.90;99.90
23629;DHT22;11991;57.150;-2.134;2022-09-09T10:48:52;16.00;99.90
23629;DHT22;11991;57.150;-2.134;2022-09-09T10:55:56;16.00;99.90
23629;DHT22;11991;57.150;-2.134;2022-09-09T11:00:10;15.90;99.90
23629;DHT22;11991;57.150;-2.134;2022-09-09T11:25:17;16.10;99.90
23629;DHT22;11991;57.150;-2.134;2022-09-09T11:30:54;16.20;99.90
23629;DHT22;11991;57.150;-2.134;2022-09-09T11:44:41;16.40;99.90
23629;DHT22;11991;57.150;-2.134;2022-09-09T11:47:29;16.40;99.90
23629;DHT22;11991;57.150;-2.134;2022-09-09T11:52:48;16.50;99.90
23629;DHT22;11991;57.150;-2.134;2022-09-09T11:55:34;16.50;99.90
23629;DHT22;11991;57.150;-2.134;2022-09-09T11:58:14;16.50;99.90
23629;DHT22;11991;57.150;-2.134;2022-09-09T12:00:50;16.50;99.90
23629;DHT22;11991;57.150;-2.134;2022-09-09T12:06:17;16.60;99.90
23629;DHT22;11991;57.150;-2.134;2022-09-09T12:08:51;16.50;99.90
23629;DHT22;11991;57.150;-2.134;2022-09-09T12:11:28;16.50;99.90
23629;DHT22;11991;57.150;-2.134;2022-09-09T12:13:59;16.40;99.90
23629;DHT22;11991;57.150;-2.134;2022-09-09T12:16:33;16.40;99.90
23629;DHT22;11991;57.150;-2.134;2022-09-09T12:24:15;16.40;99.90
23629;DHT22;11991;57.150;-2.134;2022-09-09T12:32:25;16.30;99.90
23629;DHT22;11991;57.150;-2.134;2022-09-09T12:37:38;16.40;99.90
23629;DHT22;11991;57.150;-2.134;2022-09-09T12:40:30;16.40;99.90
23629;DHT22;11991;57.150;-2.134;2022-09-09T12:42:59;16.50;99.90
23629;DHT22;11991;57.150;-2.134;2022-09-09T12:45:31;16.50;99.90
23629;DHT22;11991;57.150;-2.134;2022-09-09T12:48:08;16.50;99.90
23629;DHT22;11991;57.150;-2.134;2022-09-09T12:50:44;16.50;99.90
23629;DHT22;11991;57.150;-2.134;2022-09-09T12:53:22;16.60;99.90
23629;DHT22;11991;57.150;-2.134;2022-09-09T12:58:23;16.60;99.90
23629;DHT22;11991;57.150;-2.134;2022-09-09T13:00:53;16.60;99.90
23629;DHT22;11991;57.150;-2.134;2022-09-09T13:03:27;16.60;99.90
23629;DHT22;11991;57.150;-2.134;2022-09-09T13:05:59;16.60;99.90
23629;DHT22;11991;57.150;-2.134;2022-09-09T13:08:35;16.50;99.90
23629;DHT22;11991;57.150;-2.134;2022-09-09T13:11:07;16.50;99.90
23629;DHT22;11991;57.150;-2.134;2022-09-09T13:13:40;16.50;99.90
23629;DHT22;11991;57.150;-2.134;2022-09-09T13:18:50;16.50;99.90
23629;DHT22;11991;57.150;-2.134;2022-09-09T13:21:18;16.50;99.90
23629;DHT22;11991;57.150;-2.134;2022-09-09T13:23:50;16.50;99.90
23629;DHT22;11991;57.150;-2.134;2022-09-09T13:26:25;16.50;99.90
23629;DHT22;11991;57.150;-2.134;2022-09-09T13:29:17;16.50;99.90
23629;DHT22;11991;57.150;-2.134;2022-09-09T13:31:48;16.60;99.90
23629;DHT22;11991;57.150;-2.134;2022-09-09T13:34:28;16.50;99.90
23629;DHT22;11991;57.150;-2.134;2022-09-09T13:37:02;16.50;99.90
23629;DHT22;11991;57.150;-2.134;2022-09-09T13:39:35;16.50;99.90
23629;DHT22;11991;57.150;-2.134;2022-09-09T13:42:04;16.50;99.90
23629;DHT22;11991;57.150;-2.134;2022-09-09T13:44:39;16.40;99.90
23629;DHT22;11991;57.150;-2.134;2022-09-09T13:47:21;16.40;99.90
23629;DHT22;11991;57.150;-2.134;2022-09-09T13:49:52;16.40;99.90
23629;DHT22;11991;57.150;-2.134;2022-09-09T13:52:27;16.40;99.90
23629;DHT22;11991;57.150;-2.134;2022-09-09T13:54:59;16.40;99.90
23629;DHT22;11991;57.150;-2.134;2022-09-09T13:57:29;16.40;99.90
23629;DHT22;11991;57.150;-2.134;2022-09-09T13:59:56;16.40;99.90
23629;DHT22;11991;57.150;-2.134;2022-09-09T14:02:32;16.40;99.90
23629;DHT22;11991;57.150;-2.134;2022-09-09T14:05:04;16.30;99.90
23629;DHT22;11991;57.150;-2.134;2022-09-09T14:07:35;16.30;99.90
23629;DHT22;11991;57.150;-2.134;2022-09-09T14:10:07;16.30;99.90
23629;DHT22;11991;57.150;-2.134;2022-09-09T14:12:34;16.20;99.90
23629;DHT22;11991;57.150;-2.134;2022-09-09T14:15:04;16.10;99.90
23629;DHT22;11991;57.150;-2.134;2022-09-09T14:17:32;16.20;99.90
23629;DHT22;11991;57.150;-2.134;2022-09-09T14:20:06;16.10;99.90
23629;DHT22;11991;57.150;-2.134;2022-09-09T14:22:36;16.10;99.90
23629;DHT22;11991;57.150;-2.134;2022-09-09T14:25:07;16.10;99.90
23629;DHT22;11991;57.150;-2.134;2022-09-09T14:27:38;16.20;99.90
23629;DHT22;11991;57.150;-2.134;2022-09-09T14:30:07;16.20;99.90
23629;DHT22;11991;57.150;-2.134;2022-09-09T14:32:34;16.30;99.90
23629;DHT22;11991;57.150;-2.134;2022-09-09T14:35:02;16.30;99.90
23629;DHT22;11991;57.150;-2.134;2022-09-09T14:38:03;16.30;99.90
23629;DHT22;11991;57.150;-2.134;2022-09-09T14:40:31;16.30;99.90
23629;DHT22;11991;57.150;-2.134;2022-09-09T14:42:58;16.30;99.90
23629;DHT22;11991;57.150;-2.134;2022-09-09T14:45:26;16.30;99.90
23629;DHT22;11991;57.150;-2.134;2022-09-09T14:47:55;16.30;99.90
23629;DHT22;11991;57.150;-2.134;2022-09-09T14:50:23;16.30;99.90
23629;DHT22;11991;57.150;-2.134;2022-09-09T14:52:57;16.30;99.90
23629;DHT22;11991;57.150;-2.134;2022-09-09T14:55:24;16.30;99.90
23629;DHT22;11991;57.150;-2.134;2022-09-09T14:57:52;16.30;99.90
23629;DHT22;11991;57.150;-2.134;2022-09-09T15:00:19;16.20;99.90
23629;DHT22;11991;57.150;-2.134;2022-09-09T15:02:47;16.30;99.90
23629;DHT22;11991;57.150;-2.134;2022-09-09T15:05:21;16.20;99.90
23629;DHT22;11991;57.150;-2.134;2022-09-09T15:07:49;16.20;99.90
23629;DHT22;11991;57.150;-2.134;2022-09-09T15:10:17;16.20;99.90
23629;DHT22;11991;57.150;-2.134;2022-09-09T15:12:44;16.20;99.90
23629;DHT22;11991;57.150;-2.134;2022-09-09T15:15:13;16.20;99.90
23629;DHT22;11991;57.150;-2.134;2022-09-09T15:17:41;16.10;99.90
23629;DHT22;11991;57.150;-2.134;2022-09-09T15:20:11;16.10;99.90
23629;DHT22;11991;57.150;-2.134;2022-09-09T15:22:41;16.10;99.90
23629;DHT22;11991;57.150;-2.134;2022-09-09T15:25:08;16.10;99.90
23629;DHT22;11991;57.150;-2.134;2022-09-09T15:27:35;16.10;99.90
23629;DHT22;11991;57.150;-2.134;2022-09-09T15:30:04;16.00;99.90
23629;DHT22;11991;57.150;-2.134;2022-09-09T15:32:31;16.00;99.90
23629;DHT22;11991;57.150;-2.134;2022-09-09T15:35:01;16.00;99.90
23629;DHT22;11991;57.150;-2.134;2022-09-09T15:37:28;16.00;99.90
23629;DHT22;11991;57.150;-2.134;2022-09-09T15:39:56;16.00;99.90
23629;DHT22;11991;57.150;-2.134;2022-09-09T15:42:25;16.00;99.90
23629;DHT22;11991;57.150;-2.134;2022-09-09T15:45:02;16.00;99.90
23629;DHT22;11991;57.150;-2.134;2022-09-09T15:47:30;16.00;99.90
23629;DHT22;11991;57.150;-2.134;2022-09-09T15:50:27;15.90;99.90
23629;DHT22;11991;57.150;-2.134;2022-09-09T15:53:28;15.90;99.90
23629;DHT22;11991;57.150;-2.134;2022-09-09T15:55:55;15.90;99.90
23629;DHT22;11991;57.150;-2.134;2022-09-09T15:58:23;15.90;99.90
23629;DHT22;11991;57.150;-2.134;2022-09-09T16:00:50;15.90;99.90
23629;DHT22;11991;57.150;-2.134;2022-09-09T16:03:19;15.90;99.90
23629;DHT22;11991;57.150;-2.134;2022-09-09T16:05:51;15.90;99.90
23629;DHT22;11991;57.150;-2.134;2022-09-09T16:08:21;15.90;99.90
23629;DHT22;11991;57.150;-2.134;2022-09-09T16:10:48;15.90;99.90
23629;DHT22;11991;57.150;-2.134;2022-09-09T16:13:16;15.90;99.90
23629;DHT22;11991;57.150;-2.134;2022-09-09T16:16:09;15.80;99.90
23629;DHT22;11991;57.150;-2.134;2022-09-09T16:18:48;15.80;99.90
23629;DHT22;11991;57.150;-2.134;2022-09-09T16:21:50;15.70;99.90
23629;DHT22;11991;57.150;-2.134;2022-09-09T16:24:19;15.70;99.90
23629;DHT22;11991;57.150;-2.134;2022-09-09T16:27:06;15.70;99.90
23629;DHT22;11991;57.150;-2.134;2022-09-09T16:29:34;15.70;99.90
23629;DHT22;11991;57.150;-2.134;2022-09-09T16:32:02;15.70;99.90
23629;DHT22;11991;57.150;-2.134;2022-09-09T16:34:31;15.70;99.90
23629;DHT22;11991;57.150;-2.134;2022-09-09T16:37:04;15.70;99.90
23629;DHT22;11991;57.150;-2.134;2022-09-09T16:39:42;15.60;99.90
23629;DHT22;11991;57.150;-2.134;2022-09-09T16:42:19;15.60;99.90
23629;DHT22;11991;57.150;-2.134;2022-09-09T16:44:50;15.60;99.90
23629;DHT22;11991;57.150;-2.134;2022-09-09T16:47:21;15.60;99.90
23629;DHT22;11991;57.150;-2.134;2022-09-09T16:49:49;15.60;99.90
23629;DHT22;11991;57.150;-2.134;2022-09-09T16:52:26;15.50;99.90
23629;DHT22;11991;57.150;-2.134;2022-09-09T16:54:54;15.50;99.90
23629;DHT22;11991;57.150;-2.134;2022-09-09T16:57:21;15.60;99.90
23629;DHT22;11991;57.150;-2.134;2022-09-09T16:59:57;15.60;99.90
23629;DHT22;11991;57.150;-2.134;2022-09-09T17:02:28;15.60;99.90
23629;DHT22;11991;57.150;-2.134;2022-09-09T17:05:05;15.60;99.90
23629;DHT22;11991;57.150;-2.134;2022-09-09T17:07:37;15.60;99.90
23629;DHT22;11991;57.150;-2.134;2022-09-09T17:10:13;15.70;99.90
23629;DHT22;11991;57.150;-2.134;2022-09-09T17:13:12;15.60;99.90
23629;DHT22;11991;57.150;-2.134;2022-09-09T17:16:06;15.60;99.90
23629;DHT22;11991;57.150;-2.134;2022-09-09T17:19:09;15.60;99.90
23629;DHT22;11991;57.150;-2.134;2022-09-09T17:21:37;15.60;99.90
23629;DHT22;11991;57.150;-2.134;2022-09-09T17:24:40;15.60;99.90
23629;DHT22;11991;57.150;-2.134;2022-09-09T17:27:19;15.50;99.90
23629;DHT22;11991;57.150;-2.134;2022-09-09T17:29:55;15.50;99.90
23629;DHT22;11991;57.150;-2.134;2022-09-09T17:32:33;15.50;99.90
23629;DHT22;11991;57.150;-2.134;2022-09-09T17:38:48;15.40;99.90
23629;DHT22;11991;57.150;-2.134;2022-09-09T17:42:23;15.30;99.90
23629;DHT22;11991;57.150;-2.134;2022-09-09T17:45:41;15.30;99.90
23629;DHT22;11991;57.150;-2.134;2022-09-09T17:49:10;15.20;99.90
23629;DHT22;11991;57.150;-2.134;2022-09-09T17:51:58;15.30;99.90
23629;DHT22;11991;57.150;-2.134;2022-09-09T17:54:28;15.20;99.90
23629;DHT22;11991;57.150;-2.134;2022-09-09T17:57:18;15.20;99.90
23629;DHT22;11991;57.150;-2.134;2022-09-09T17:59:46;15.10;99.90
23629;DHT22;11991;57.150;-2.134;2022-09-09T18:02:16;15.10;99.90
23629;DHT22;11991;57.150;-2.134;2022-09-09T18:04:44;15.10;99.90
23629;DHT22;11991;57.150;-2.134;2022-09-09T18:07:11;15.10;99.90
23629;DHT22;11991;57.150;-2.134;2022-09-09T18:09:39;15.10;99.90
23629;DHT22;11991;57.150;-2.134;2022-09-09T18:12:08;15.00;99.90
23629;DHT22;11991;57.150;-2.134;2022-09-09T18:14:44;15.00;99.90
23629;DHT22;11991;57.150;-2.134;2022-09-09T18:17:32;15.00;99.90
23629;DHT22;11991;57.150;-2.134;2022-09-09T18:20:00;15.00;99.90
23629;DHT22;11991;57.150;-2.134;2022-09-09T18:22:45;15.00;99.90
23629;DHT22;11991;57.150;-2.134;2022-09-09T18:25:13;15.00;99.90
23629;DHT22;11991;57.150;-2.134;2022-09-09T18:27:40;14.90;99.90
23629;DHT22;11991;57.150;-2.134;2022-09-09T18:30:08;14.90;99.90
23629;DHT22;11991;57.150;-2.134;2022-09-09T18:32:38;14.90;99.90
23629;DHT22;11991;57.150;-2.134;2022-09-09T18:35:06;14.90;99.90
23629;DHT22;11991;57.150;-2.134;2022-09-09T18:37:34;14.90;99.90
23629;DHT22;11991;57.150;-2.134;2022-09-09T18:40:03;14.90;99.90
23629;DHT22;11991;57.150;-2.134;2022-09-09T18:42:30;14.90;99.90
23629;DHT22;11991;57.150;-2.134;2022-09-09T18:44:57;14.90;99.90
23629;DHT22;11991;57.150;-2.134;2022-09-09T18:47:28;14.90;99.90
23629;DHT22;11991;57.150;-2.134;2022-09-09T18:49:55;14.90;99.90
23629;DHT22;11991;57.150;-2.134;2022-09-09T18:52:23;14.80;99.90
23629;DHT22;11991;57.150;-2.134;2022-09-09T18:54:51;14.80;99.90
23629;DHT22;11991;57.150;-2.134;2022-09-09T18:57:22;14.80;99.90
23629;DHT22;11991;57.150;-2.134;2022-09-09T19:00:05;14.80;99.90
23629;DHT22;11991;57.150;-2.134;2022-09-09T19:02:59;14.80;99.90
23629;DHT22;11991;57.150;-2.134;2022-09-09T19:05:46;14.80;99.90
23629;DHT22;11991;57.150;-2.134;2022-09-09T19:08:25;14.80;99.90
23629;DHT22;11991;57.150;-2.134;2022-09-09T19:10:53;14.80;99.90
23629;DHT22;11991;57.150;-2.134;2022-09-09T19:13:21;14.70;99.90
23629;DHT22;11991;57.150;-2.134;2022-09-09T19:15:49;14.70;99.90
23629;DHT22;11991;57.150;-2.134;2022-09-09T19:18:20;14.70;99.90
23629;DHT22;11991;57.150;-2.134;2022-09-09T19:20:50;14.70;99.90
23629;DHT22;11991;57.150;-2.134;2022-09-09T19:23:21;14.60;99.90
23629;DHT22;11991;57.150;-2.134;2022-09-09T19:25:49;14.70;99.90
23629;DHT22;11991;57.150;-2.134;2022-09-09T19:28:16;14.70;99.90
23629;DHT22;11991;57.150;-2.134;2022-09-09T19:30:44;14.60;99.90